sensor_id;sensor_type;location;lat;lon;timestamp;P1;durP1;ratioP1;P2;durP2;ratioP2
37895;SDS011;23733;53.254;10.430;2022-12-22T00:02:02;17.67;;;7.87;;
37895;SDS011;23733;53.254;10.430;2022-12-22T00:04:48;17.03;;;8.50;;
37895;SDS011;23733;53.254;10.430;2022-12-22T00:07:33;18.10;;;8.93;;
37895;SDS011;23733;53.254;10.430;2022-12-22T00:10:18;22.63;;;9.77;;
37895;SDS011;23733;53.254;10.430;2022-12-22T00:13:03;16.80;;;8.73;;
37895;SDS011;23733;53.254;10.430;2022-12-22T00:15:48;17.23;;;8.10;;
37895;SDS011;23733;53.254;10.430;2022-12-22T00:18:33;14.77;;;7.90;;
37895;SDS011;23733;53.254;10.430;2022-12-22T00:21:18;15.47;;;7.80;;
37895;SDS011;23733;53.254;10.430;2022-12-22T00:24:03;15.57;;;8.20;;
37895;SDS011;23733;53.254;10.430;2022-12-22T00:26:48;14.43;;;7.87;;
37895;SDS011;23733;53.254;10.430;2022-12-22T00:29:37;16.37;;;8.33;;
37895;SDS011;23733;53.254;10.430;2022-12-22T00:32:23;19.33;;;8.40;;
37895;SDS011;23733;53.254;10.430;2022-12-22T00:35:12;13.90;;;7.53;;
37895;SDS011;23733;53.254;10.430;2022-12-22T00:37:58;19.30;;;7.90;;
37895;SDS011;23733;53.254;10.430;2022-12-22T00:40:43;18.63;;;8.20;;
37895;SDS011;23733;53.254;10.430;2022-12-22T00:43:28;17.97;;;7.60;;
37895;SDS011;23733;53.254;10.430;2022-12-22T00:46:14;14.57;;;7.57;;
37895;SDS011;23733;53.254;10.430;2022-12-22T00:49:00;14.73;;;8.17;;
37895;SDS011;23733;53.254;10.430;2022-12-22T00:51:45;18.60;;;8.83;;
37895;SDS011;23733;53.254;10.430;2022-12-22T00:54:30;15.43;;;7.27;;
37895;SDS011;23733;53.254;10.430;2022-12-22T00:57:16;13.40;;;6.90;;
37895;SDS011;23733;53.254;10.430;2022-12-22T01:00:03;13.27;;;7.50;;
37895;SDS011;23733;53.254;10.430;2022-12-22T01:02:48;16.83;;;7.07;;
37895;SDS011;23733;53.254;10.430;2022-12-22T01:05:33;12.53;;;6.93;;
37895;SDS011;23733;53.254;10.430;2022-12-22T01:08:18;12.90;;;6.43;;
37895;SDS011;23733;53.254;10.430;2022-12-22T01:11:03;14.37;;;7.30;;
37895;SDS011;23733;53.254;10.430;2022-12-22T01:13:48;13.63;;;6.50;;
37895;SDS011;23733;53.254;10.430;2022-12-22T01:16:33;10.77;;;6.10;;
37895;SDS011;23733;53.254;10.430;2022-12-22T01:19:18;9.40;;;5.70;;
37895;SDS011;23733;53.254;10.430;2022-12-22T01:22:06;9.00;;;5.30;;
37895;SDS011;23733;53.254;10.430;2022-12-22T01:24:51;14.40;;;7.00;;
37895;SDS011;23733;53.254;10.430;2022-12-22T01:27:36;8.63;;;5.93;;
37895;SDS011;23733;53.254;10.430;2022-12-22T01:30:21;10.97;;;7.13;;
37895;SDS011;23733;53.254;10.430;2022-12-22T01:33:08;10.93;;;5.67;;
37895;SDS011;23733;53.254;10.430;2022-12-22T01:35:55;10.33;;;6.47;;
37895;SDS011;23733;53.254;10.430;2022-12-22T01:38:39;10.50;;;5.60;;
37895;SDS011;23733;53.254;10.430;2022-12-22T01:41:25;10.53;;;6.63;;
37895;SDS011;23733;53.254;10.430;2022-12-22T01:44:14;9.30;;;5.77;;
37895;SDS011;23733;53.254;10.430;2022-12-22T01:50:04;10.73;;;5.97;;
37895;SDS011;23733;53.254;10.430;2022-12-22T01:52:49;7.77;;;5.03;;
37895;SDS011;23733;53.254;10.430;2022-12-22T01:55:34;10.33;;;7.20;;
37895;SDS011;23733;53.254;10.430;2022-12-22T01:58:20;8.57;;;6.00;;
37895;SDS011;23733;53.254;10.430;2022-12-22T02:01:09;10.43;;;6.60;;
37895;SDS011;23733;53.254;10.430;2022-12-22T02:03:54;10.90;;;5.73;;
37895;SDS011;23733;53.254;10.430;2022-12-22T02:06:40;8.53;;;6.43;;
37895;SDS011;23733;53.254;10.430;2022-12-22T02:18:06;11.60;;;6.70;;
37895;SDS011;23733;53.254;10.430;2022-12-22T02:20:52;14.73;;;7.43;;
37895;SDS011;23733;53.254;10.430;2022-12-22T02:26:35;11.87;;;6.57;;
37895;SDS011;23733;53.254;10.430;2022-12-22T02:29:24;11.23;;;6.37;;
37895;SDS011;23733;53.254;10.430;2022-12-22T02:32:10;9.30;;;6.40;;
37895;SDS011;23733;53.254;10.430;2022-12-22T02:34:55;12.07;;;6.60;;
37895;SDS011;23733;53.254;10.430;2022-12-22T02:40:28;10.13;;;7.30;;
37895;SDS011;23733;53.254;10.430;2022-12-22T02:46:13;11.47;;;7.30;;
37895;SDS011;23733;53.254;10.430;2022-12-22T02:49:03;9.60;;;6.77;;
37895;SDS011;23733;53.254;10.430;2022-12-22T02:51:54;10.87;;;7.00;;
37895;SDS011;23733;53.254;10.430;2022-12-22T02:54:42;10.53;;;7.23;;
37895;SDS011;23733;53.254;10.430;2022-12-22T02:57:27;9.90;;;6.97;;
37895;SDS011;23733;53.254;10.430;2022-12-22T03:00:13;9.97;;;6.53;;
37895;SDS011;23733;53.254;10.430;2022-12-22T03:02:58;10.57;;;6.53;;
37895;SDS011;23733;53.254;10.430;2022-12-22T03:05:43;10.27;;;6.77;;
37895;SDS011;23733;53.254;10.430;2022-12-22T03:08:28;11.37;;;7.67;;
37895;SDS011;23733;53.254;10.430;2022-12-22T03:11:13;9.70;;;6.83;;
37895;SDS011;23733;53.254;10.430;2022-12-22T03:13:58;10.20;;;7.00;;
37895;SDS011;23733;53.254;10.430;2022-12-22T03:16:43;11.63;;;6.90;;
37895;SDS011;23733;53.254;10.430;2022-12-22T03:19:27;12.53;;;8.00;;
37895;SDS011;23733;53.254;10.430;2022-12-22T03:22:12;16.40;;;8.73;;
37895;SDS011;23733;53.254;10.430;2022-12-22T03:24:57;10.07;;;6.60;;
37895;SDS011;23733;53.254;10.430;2022-12-22T03:27:42;9.67;;;6.90;;
37895;SDS011;23733;53.254;10.430;2022-12-22T03:30:08;9.73;;;6.70;;
37895;SDS011;23733;53.254;10.430;2022-12-22T03:32:35;8.77;;;7.10;;
37895;SDS011;23733;53.254;10.430;2022-12-22T03:35:01;12.60;;;7.50;;
37895;SDS011;23733;53.254;10.430;2022-12-22T03:37:27;9.53;;;6.20;;
37895;SDS011;23733;53.254;10.430;2022-12-22T03:39:54;10.37;;;6.77;;
37895;SDS011;23733;53.254;10.430;2022-12-22T03:42:20;11.47;;;7.10;;
37895;SDS011;23733;53.254;10.430;2022-12-22T03:45:07;10.70;;;6.30;;
37895;SDS011;23733;53.254;10.430;2022-12-22T03:47:52;8.10;;;6.63;;
37895;SDS011;23733;53.254;10.430;2022-12-22T03:50:19;10.77;;;7.50;;
37895;SDS011;23733;53.254;10.430;2022-12-22T03:52:45;9.90;;;6.67;;
37895;SDS011;23733;53.254;10.430;2022-12-22T03:55:11;9.23;;;6.47;;
37895;SDS011;23733;53.254;10.430;2022-12-22T03:57:38;8.90;;;5.90;;
37895;SDS011;23733;53.254;10.430;2022-12-22T04:00:04;10.57;;;7.57;;
37895;SDS011;23733;53.254;10.430;2022-12-22T04:02:31;9.80;;;6.60;;
37895;SDS011;23733;53.254;10.430;2022-12-22T04:04:57;8.47;;;6.23;;
37895;SDS011;23733;53.254;10.430;2022-12-22T04:07:23;7.33;;;5.93;;
37895;SDS011;23733;53.254;10.430;2022-12-22T04:09:50;8.77;;;6.30;;
37895;SDS011;23733;53.254;10.430;2022-12-22T04:12:35;9.23;;;6.20;;
37895;SDS011;23733;53.254;10.430;2022-12-22T04:15:23;11.77;;;6.93;;
37895;SDS011;23733;53.254;10.430;2022-12-22T04:17:49;9.67;;;6.23;;
37895;SDS011;23733;53.254;10.430;2022-12-22T04:20:16;9.17;;;6.50;;
37895;SDS011;23733;53.254;10.430;2022-12-22T04:22:42;9.32;;;6.82;;
37895;SDS011;23733;53.254;10.430;2022-12-22T04:25:09;8.80;;;6.00;;
37895;SDS011;23733;53.254;10.430;2022-12-22T04:27:35;11.27;;;6.63;;
37895;SDS011;23733;53.254;10.430;2022-12-22T04:30:02;8.80;;;6.40;;
37895;SDS011;23733;53.254;10.430;2022-12-22T04:32:28;8.40;;;5.80;;
37895;SDS011;23733;53.254;10.430;2022-12-22T04:34:55;9.57;;;5.87;;
37895;SDS011;23733;53.254;10.430;2022-12-22T04:37:21;8.27;;;6.03;;
37895;SDS011;23733;53.254;10.430;2022-12-22T04:39:47;8.77;;;6.00;;
37895;SDS011;23733;53.254;10.430;2022-12-22T04:42:14;12.00;;;6.40;;
37895;SDS011;23733;53.254;10.430;2022-12-22T04:44:40;11.83;;;7.27;;
37895;SDS011;23733;53.254;10.430;2022-12-22T04:47:06;8.20;;;6.03;;
37895;SDS011;23733;53.254;10.430;2022-12-22T04:49:33;8.00;;;6.30;;
37895;SDS011;23733;53.254;10.430;2022-12-22T04:51:59;11.30;;;6.70;;
37895;SDS011;23733;53.254;10.430;2022-12-22T04:54:25;9.13;;;6.63;;
37895;SDS011;23733;53.254;10.430;2022-12-22T04:56:52;9.47;;;6.83;;
37895;SDS011;23733;53.254;10.430;2022-12-22T04:59:18;9.97;;;6.87;;
37895;SDS011;23733;53.254;10.430;2022-12-22T05:01:44;9.17;;;6.47;;
37895;SDS011;23733;53.254;10.430;2022-12-22T05:04:11;9.60;;;6.50;;
37895;SDS011;23733;53.254;10.430;2022-12-22T05:06:37;9.63;;;6.87;;
37895;SDS011;23733;53.254;10.430;2022-12-22T05:09:03;10.33;;;6.60;;
37895;SDS011;23733;53.254;10.430;2022-12-22T05:11:30;7.87;;;5.70;;
37895;SDS011;23733;53.254;10.430;2022-12-22T05:13:56;8.73;;;6.70;;
37895;SDS011;23733;53.254;10.430;2022-12-22T05:16:22;10.90;;;6.63;;
37895;SDS011;23733;53.254;10.430;2022-12-22T05:18:48;10.97;;;7.27;;
37895;SDS011;23733;53.254;10.430;2022-12-22T05:21:16;7.87;;;6.37;;
37895;SDS011;23733;53.254;10.430;2022-12-22T05:23:42;9.50;;;7.03;;
37895;SDS011;23733;53.254;10.430;2022-12-22T05:26:18;8.37;;;6.60;;
37895;SDS011;23733;53.254;10.430;2022-12-22T05:29:04;9.53;;;6.90;;
37895;SDS011;23733;53.254;10.430;2022-12-22T05:31:30;9.73;;;7.33;;
37895;SDS011;23733;53.254;10.430;2022-12-22T05:33:57;12.18;;;8.43;;
37895;SDS011;23733;53.254;10.430;2022-12-22T05:36:23;10.00;;;6.93;;
37895;SDS011;23733;53.254;10.430;2022-12-22T05:38:49;9.40;;;7.07;;
37895;SDS011;23733;53.254;10.430;2022-12-22T05:41:16;9.33;;;7.13;;
37895;SDS011;23733;53.254;10.430;2022-12-22T05:43:42;9.47;;;6.83;;
37895;SDS011;23733;53.254;10.430;2022-12-22T05:46:09;7.73;;;6.40;;
37895;SDS011;23733;53.254;10.430;2022-12-22T05:48:36;10.53;;;7.67;;
37895;SDS011;23733;53.254;10.430;2022-12-22T05:51:02;10.37;;;6.53;;
37895;SDS011;23733;53.254;10.430;2022-12-22T05:53:29;9.23;;;6.93;;
37895;SDS011;23733;53.254;10.430;2022-12-22T05:56:01;10.03;;;7.07;;
37895;SDS011;23733;53.254;10.430;2022-12-22T05:58:27;11.37;;;7.90;;
37895;SDS011;23733;53.254;10.430;2022-12-22T06:00:57;10.20;;;6.70;;
37895;SDS011;23733;53.254;10.430;2022-12-22T06:03:27;10.37;;;7.33;;
37895;SDS011;23733;53.254;10.430;2022-12-22T06:05:54;10.20;;;7.40;;
37895;SDS011;23733;53.254;10.430;2022-12-22T06:08:20;12.30;;;7.90;;
37895;SDS011;23733;53.254;10.430;2022-12-22T06:10:49;10.77;;;7.57;;
37895;SDS011;23733;53.254;10.430;2022-12-22T06:13:16;11.50;;;7.60;;
37895;SDS011;23733;53.254;10.430;2022-12-22T06:15:42;12.03;;;8.70;;
37895;SDS011;23733;53.254;10.430;2022-12-22T06:18:08;9.80;;;7.23;;
37895;SDS011;23733;53.254;10.430;2022-12-22T06:20:35;9.17;;;7.03;;
37895;SDS011;23733;53.254;10.430;2022-12-22T06:23:01;9.37;;;7.13;;
37895;SDS011;23733;53.254;10.430;2022-12-22T06:25:27;11.13;;;8.33;;
37895;SDS011;23733;53.254;10.430;2022-12-22T06:27:54;14.33;;;7.80;;
37895;SDS011;23733;53.254;10.430;2022-12-22T06:30:20;12.13;;;8.67;;
37895;SDS011;23733;53.254;10.430;2022-12-22T06:32:46;10.90;;;7.57;;
37895;SDS011;23733;53.254;10.430;2022-12-22T06:35:13;12.57;;;8.30;;
37895;SDS011;23733;53.254;10.430;2022-12-22T06:37:42;15.90;;;9.90;;
37895;SDS011;23733;53.254;10.430;2022-12-22T06:40:08;14.57;;;9.40;;
37895;SDS011;23733;53.254;10.430;2022-12-22T06:42:38;13.97;;;9.37;;
37895;SDS011;23733;53.254;10.430;2022-12-22T06:45:23;11.50;;;8.73;;
37895;SDS011;23733;53.254;10.430;2022-12-22T06:47:49;12.70;;;9.57;;
37895;SDS011;23733;53.254;10.430;2022-12-22T06:50:18;15.93;;;9.20;;
37895;SDS011;23733;53.254;10.430;2022-12-22T06:52:47;11.80;;;8.40;;
37895;SDS011;23733;53.254;10.430;2022-12-22T06:55:13;9.83;;;7.40;;
37895;SDS011;23733;53.254;10.430;2022-12-22T06:57:40;10.10;;;7.87;;
37895;SDS011;23733;53.254;10.430;2022-12-22T07:00:06;11.57;;;8.67;;
37895;SDS011;23733;53.254;10.430;2022-12-22T07:02:33;9.87;;;7.53;;
37895;SDS011;23733;53.254;10.430;2022-12-22T07:04:59;12.50;;;8.17;;
37895;SDS011;23733;53.254;10.430;2022-12-22T07:07:25;10.40;;;8.30;;
37895;SDS011;23733;53.254;10.430;2022-12-22T07:09:51;13.00;;;8.53;;
37895;SDS011;23733;53.254;10.430;2022-12-22T07:12:20;12.57;;;8.60;;
37895;SDS011;23733;53.254;10.430;2022-12-22T07:14:46;11.30;;;8.03;;
37895;SDS011;23733;53.254;10.430;2022-12-22T07:17:12;11.67;;;8.67;;
37895;SDS011;23733;53.254;10.430;2022-12-22T07:19:39;14.33;;;9.40;;
37895;SDS011;23733;53.254;10.430;2022-12-22T07:22:05;12.33;;;8.43;;
37895;SDS011;23733;53.254;10.430;2022-12-22T07:24:31;11.97;;;8.17;;
37895;SDS011;23733;53.254;10.430;2022-12-22T07:26:58;11.53;;;8.70;;
37895;SDS011;23733;53.254;10.430;2022-12-22T07:29:24;16.00;;;9.40;;
37895;SDS011;23733;53.254;10.430;2022-12-22T07:31:50;13.07;;;9.40;;
37895;SDS011;23733;53.254;10.430;2022-12-22T07:34:16;17.53;;;9.93;;
37895;SDS011;23733;53.254;10.430;2022-12-22T07:36:43;17.07;;;11.43;;
37895;SDS011;23733;53.254;10.430;2022-12-22T07:39:10;20.20;;;12.67;;
37895;SDS011;23733;53.254;10.430;2022-12-22T07:41:36;15.93;;;10.00;;
37895;SDS011;23733;53.254;10.430;2022-12-22T07:44:22;17.53;;;11.53;;
37895;SDS011;23733;53.254;10.430;2022-12-22T07:46:48;19.17;;;11.77;;
37895;SDS011;23733;53.254;10.430;2022-12-22T07:49:14;19.17;;;11.27;;
37895;SDS011;23733;53.254;10.430;2022-12-22T07:52:00;20.93;;;11.57;;
37895;SDS011;23733;53.254;10.430;2022-12-22T07:54:26;12.77;;;8.87;;
37895;SDS011;23733;53.254;10.430;2022-12-22T07:56:53;12.00;;;8.90;;
37895;SDS011;23733;53.254;10.430;2022-12-22T07:59:19;17.27;;;9.77;;
37895;SDS011;23733;53.254;10.430;2022-12-22T08:01:46;14.63;;;9.73;;
37895;SDS011;23733;53.254;10.430;2022-12-22T08:04:13;14.27;;;8.77;;
37895;SDS011;23733;53.254;10.430;2022-12-22T08:06:39;14.40;;;7.93;;
37895;SDS011;23733;53.254;10.430;2022-12-22T08:09:07;10.67;;;8.17;;
37895;SDS011;23733;53.254;10.430;2022-12-22T08:11:34;10.40;;;7.73;;
37895;SDS011;23733;53.254;10.430;2022-12-22T08:14:00;11.57;;;8.77;;
37895;SDS011;23733;53.254;10.430;2022-12-22T08:16:26;11.77;;;8.20;;
37895;SDS011;23733;53.254;10.430;2022-12-22T08:18:53;11.73;;;8.20;;
37895;SDS011;23733;53.254;10.430;2022-12-22T08:21:19;12.60;;;8.33;;
37895;SDS011;23733;53.254;10.430;2022-12-22T08:23:45;11.50;;;7.67;;
37895;SDS011;23733;53.254;10.430;2022-12-22T08:26:16;11.57;;;8.10;;
37895;SDS011;23733;53.254;10.430;2022-12-22T08:28:45;10.90;;;7.17;;
37895;SDS011;23733;53.254;10.430;2022-12-22T08:31:15;11.63;;;7.93;;
37895;SDS011;23733;53.254;10.430;2022-12-22T08:33:42;11.73;;;8.40;;
37895;SDS011;23733;53.254;10.430;2022-12-22T08:36:08;10.27;;;7.73;;
37895;SDS011;23733;53.254;10.430;2022-12-22T08:38:35;11.03;;;8.20;;
37895;SDS011;23733;53.254;10.430;2022-12-22T08:41:02;9.27;;;7.43;;
37895;SDS011;23733;53.254;10.430;2022-12-22T08:43:29;11.20;;;7.77;;
37895;SDS011;23733;53.254;10.430;2022-12-22T08:45:56;13.80;;;8.90;;
37895;SDS011;23733;53.254;10.430;2022-12-22T08:48:22;12.60;;;8.03;;
37895;SDS011;23733;53.254;10.430;2022-12-22T08:50:49;9.90;;;8.10;;
37895;SDS011;23733;53.254;10.430;2022-12-22T08:53:15;12.37;;;9.07;;
37895;SDS011;23733;53.254;10.430;2022-12-22T08:55:49;10.17;;;7.77;;
37895;SDS011;23733;53.254;10.430;2022-12-22T08:58:15;10.67;;;7.80;;
37895;SDS011;23733;53.254;10.430;2022-12-22T09:00:41;10.33;;;7.80;;
37895;SDS011;23733;53.254;10.430;2022-12-22T09:03:08;12.30;;;8.23;;
37895;SDS011;23733;53.254;10.430;2022-12-22T09:05:37;11.67;;;8.27;;
37895;SDS011;23733;53.254;10.430;2022-12-22T09:08:04;10.47;;;8.27;;
37895;SDS011;23733;53.254;10.430;2022-12-22T09:10:30;12.73;;;7.83;;
37895;SDS011;23733;53.254;10.430;2022-12-22T09:12:57;12.17;;;7.93;;
37895;SDS011;23733;53.254;10.430;2022-12-22T09:15:23;10.70;;;8.23;;
37895;SDS011;23733;53.254;10.430;2022-12-22T09:17:50;13.87;;;8.13;;
37895;SDS011;23733;53.254;10.430;2022-12-22T09:20:16;12.37;;;8.43;;
37895;SDS011;23733;53.254;10.430;2022-12-22T09:22:42;10.77;;;8.03;;
37895;SDS011;23733;53.254;10.430;2022-12-22T09:25:09;11.87;;;8.73;;
37895;SDS011;23733;53.254;10.430;2022-12-22T09:27:35;13.93;;;8.23;;
37895;SDS011;23733;53.254;10.430;2022-12-22T09:30:01;14.33;;;9.20;;
37895;SDS011;23733;53.254;10.430;2022-12-22T09:32:28;13.53;;;8.00;;
37895;SDS011;23733;53.254;10.430;2022-12-22T09:34:54;18.33;;;8.30;;
37895;SDS011;23733;53.254;10.430;2022-12-22T09:37:20;11.10;;;8.03;;
37895;SDS011;23733;53.254;10.430;2022-12-22T09:39:47;9.57;;;6.83;;
37895;SDS011;23733;53.254;10.430;2022-12-22T09:42:14;10.80;;;7.57;;
37895;SDS011;23733;53.254;10.430;2022-12-22T09:44:41;11.20;;;7.63;;
37895;SDS011;23733;53.254;10.430;2022-12-22T09:47:15;9.53;;;7.10;;
37895;SDS011;23733;53.254;10.430;2022-12-22T09:49:43;11.40;;;7.73;;
37895;SDS011;23733;53.254;10.430;2022-12-22T09:52:19;11.00;;;7.63;;
37895;SDS011;23733;53.254;10.430;2022-12-22T09:54:47;12.67;;;7.90;;
37895;SDS011;23733;53.254;10.430;2022-12-22T09:57:14;11.50;;;8.03;;
37895;SDS011;23733;53.254;10.430;2022-12-22T09:59:40;10.10;;;7.40;;
37895;SDS011;23733;53.254;10.430;2022-12-22T10:02:09;15.80;;;8.77;;
37895;SDS011;23733;53.254;10.430;2022-12-22T10:07:30;11.23;;;8.33;;
37895;SDS011;23733;53.254;10.430;2022-12-22T10:12:41;12.47;;;7.90;;
37895;SDS011;23733;53.254;10.430;2022-12-22T10:15:11;13.13;;;8.57;;
37895;SDS011;23733;53.254;10.430;2022-12-22T10:17:37;15.50;;;8.40;;
37895;SDS011;23733;53.254;10.430;2022-12-22T10:20:21;12.53;;;8.27;;
37895;SDS011;23733;53.254;10.430;2022-12-22T10:22:57;15.17;;;9.13;;
37895;SDS011;23733;53.254;10.430;2022-12-22T10:25:31;15.90;;;9.47;;
37895;SDS011;23733;53.254;10.430;2022-12-22T10:27:58;16.20;;;9.37;;
37895;SDS011;23733;53.254;10.430;2022-12-22T10:30:32;16.07;;;10.23;;
37895;SDS011;23733;53.254;10.430;2022-12-22T10:33:00;16.43;;;9.73;;
37895;SDS011;23733;53.254;10.430;2022-12-22T10:38:23;14.30;;;8.83;;
37895;SDS011;23733;53.254;10.430;2022-12-22T10:40:52;15.73;;;9.50;;
37895;SDS011;23733;53.254;10.430;2022-12-22T10:43:22;17.47;;;10.33;;
37895;SDS011;23733;53.254;10.430;2022-12-22T10:45:50;15.03;;;9.40;;
37895;SDS011;23733;53.254;10.430;2022-12-22T10:48:17;19.77;;;10.30;;
37895;SDS011;23733;53.254;10.430;2022-12-22T10:50:50;15.73;;;9.90;;
37895;SDS011;23733;53.254;10.430;2022-12-22T10:53:16;21.93;;;12.03;;
37895;SDS011;23733;53.254;10.430;2022-12-22T10:55:43;15.43;;;9.87;;
37895;SDS011;23733;53.254;10.430;2022-12-22T11:00:36;20.27;;;11.63;;
37895;SDS011;23733;53.254;10.430;2022-12-22T11:03:03;21.00;;;11.37;;
37895;SDS011;23733;53.254;10.430;2022-12-22T11:05:31;16.40;;;10.37;;
37895;SDS011;23733;53.254;10.430;2022-12-22T11:08:03;22.23;;;12.53;;
37895;SDS011;23733;53.254;10.430;2022-12-22T11:10:40;23.27;;;13.23;;
37895;SDS011;23733;53.254;10.430;2022-12-22T11:15:38;19.80;;;11.60;;
37895;SDS011;23733;53.254;10.430;2022-12-22T11:18:18;20.80;;;11.97;;
37895;SDS011;23733;53.254;10.430;2022-12-22T11:20:50;19.53;;;11.60;;
37895;SDS011;23733;53.254;10.430;2022-12-22T11:23:25;20.20;;;12.33;;
37895;SDS011;23733;53.254;10.430;2022-12-22T11:36:21;22.03;;;12.53;;
37895;SDS011;23733;53.254;10.430;2022-12-22T11:46:16;16.60;;;9.77;;
37895;SDS011;23733;53.254;10.430;2022-12-22T11:54:16;18.27;;;11.03;;
37895;SDS011;23733;53.254;10.430;2022-12-22T11:56:54;18.50;;;11.70;;
37895;SDS011;23733;53.254;10.430;2022-12-22T12:06:53;19.40;;;11.60;;
37895;SDS011;23733;53.254;10.430;2022-12-22T12:11:56;19.30;;;11.90;;
37895;SDS011;23733;53.254;10.430;2022-12-22T12:14:44;21.00;;;12.30;;
37895;SDS011;23733;53.254;10.430;2022-12-22T12:25:15;20.93;;;12.33;;
37895;SDS011;23733;53.254;10.430;2022-12-22T12:30:32;20.88;;;13.63;;
37895;SDS011;23733;53.254;10.430;2022-12-22T12:33:12;17.40;;;11.40;;
37895;SDS011;23733;53.254;10.430;2022-12-22T12:40:54;20.37;;;12.30;;
37895;SDS011;23733;53.254;10.430;2022-12-22T12:43:25;19.63;;;11.70;;
37895;SDS011;23733;53.254;10.430;2022-12-22T12:45:51;20.90;;;12.50;;
37895;SDS011;23733;53.254;10.430;2022-12-22T12:50:52;18.07;;;11.07;;
37895;SDS011;23733;53.254;10.430;2022-12-22T12:53:19;22.93;;;12.83;;
37895;SDS011;23733;53.254;10.430;2022-12-22T12:58:45;18.50;;;12.40;;
37895;SDS011;23733;53.254;10.430;2022-12-22T13:00:59;17.63;;;11.17;;
37895;SDS011;23733;53.254;10.430;2022-12-22T13:05:55;19.13;;;11.37;;
37895;SDS011;23733;53.254;10.430;2022-12-22T13:08:23;19.23;;;11.70;;
37895;SDS011;23733;53.254;10.430;2022-12-22T13:23:21;18.33;;;11.37;;
37895;SDS011;23733;53.254;10.430;2022-12-22T13:25:50;20.70;;;11.53;;
37895;SDS011;23733;53.254;10.430;2022-12-22T13:28:19;20.73;;;12.13;;
37895;SDS011;23733;53.254;10.430;2022-12-22T13:30:50;18.47;;;11.07;;
37895;SDS011;23733;53.254;10.430;2022-12-22T13:33:18;19.17;;;11.83;;
37895;SDS011;23733;53.254;10.430;2022-12-22T13:35:45;20.97;;;12.10;;
37895;SDS011;23733;53.254;10.430;2022-12-22T13:38:29;21.73;;;11.47;;
37895;SDS011;23733;53.254;10.430;2022-12-22T13:40:56;18.87;;;11.17;;
37895;SDS011;23733;53.254;10.430;2022-12-22T13:43:23;20.10;;;12.07;;
37895;SDS011;23733;53.254;10.430;2022-12-22T13:45:51;18.13;;;11.40;;
37895;SDS011;23733;53.254;10.430;2022-12-22T13:48:20;17.57;;;10.70;;
37895;SDS011;23733;53.254;10.430;2022-12-22T13:50:47;19.30;;;11.17;;
37895;SDS011;23733;53.254;10.430;2022-12-22T13:53:17;18.17;;;11.53;;
37895;SDS011;23733;53.254;10.430;2022-12-22T13:55:44;18.37;;;11.50;;
37895;SDS011;23733;53.254;10.430;2022-12-22T13:58:20;18.20;;;11.13;;
37895;SDS011;23733;53.254;10.430;2022-12-22T14:00:59;19.27;;;11.70;;
37895;SDS011;23733;53.254;10.430;2022-12-22T14:03:25;19.53;;;11.33;;
37895;SDS011;23733;53.254;10.430;2022-12-22T14:05:51;19.60;;;11.50;;
37895;SDS011;23733;53.254;10.430;2022-12-22T14:08:21;17.13;;;11.20;;
37895;SDS011;23733;53.254;10.430;2022-12-22T14:10:48;16.30;;;10.50;;
37895;SDS011;23733;53.254;10.430;2022-12-22T14:13:15;18.57;;;9.83;;
37895;SDS011;23733;53.254;10.430;2022-12-22T14:15:42;16.33;;;10.27;;
37895;SDS011;23733;53.254;10.430;2022-12-22T14:18:15;18.83;;;10.50;;
37895;SDS011;23733;53.254;10.430;2022-12-22T14:20:45;16.93;;;10.47;;
37895;SDS011;23733;53.254;10.430;2022-12-22T14:23:15;18.13;;;10.00;;
37895;SDS011;23733;53.254;10.430;2022-12-22T14:25:43;16.27;;;10.33;;
37895;SDS011;23733;53.254;10.430;2022-12-22T14:28:15;18.33;;;9.77;;
37895;SDS011;23733;53.254;10.430;2022-12-22T14:30:46;19.30;;;10.93;;
37895;SDS011;23733;53.254;10.430;2022-12-22T14:38:52;15.57;;;9.47;;
37895;SDS011;23733;53.254;10.430;2022-12-22T14:41:21;16.10;;;9.53;;
37895;SDS011;23733;53.254;10.430;2022-12-22T14:44:14;20.60;;;10.50;;
37895;SDS011;23733;53.254;10.430;2022-12-22T14:46:44;20.57;;;10.57;;
37895;SDS011;23733;53.254;10.430;2022-12-22T14:49:14;17.20;;;10.23;;
37895;SDS011;23733;53.254;10.430;2022-12-22T14:51:41;18.23;;;10.23;;
37895;SDS011;23733;53.254;10.430;2022-12-22T14:54:16;15.03;;;9.47;;
37895;SDS011;23733;53.254;10.430;2022-12-22T14:56:49;18.50;;;10.50;;
37895;SDS011;23733;53.254;10.430;2022-12-22T14:59:25;15.43;;;9.60;;
37895;SDS011;23733;53.254;10.430;2022-12-22T15:05:05;15.83;;;9.00;;
37895;SDS011;23733;53.254;10.430;2022-12-22T15:07:44;16.17;;;9.13;;
37895;SDS011;23733;53.254;10.430;2022-12-22T15:10:13;16.63;;;10.30;;
37895;SDS011;23733;53.254;10.430;2022-12-22T15:12:49;19.23;;;10.57;;
37895;SDS011;23733;53.254;10.430;2022-12-22T15:15:17;16.97;;;10.13;;
37895;SDS011;23733;53.254;10.430;2022-12-22T15:17:47;15.43;;;9.50;;
37895;SDS011;23733;53.254;10.430;2022-12-22T15:20:18;17.30;;;9.77;;
37895;SDS011;23733;53.254;10.430;2022-12-22T15:22:44;15.10;;;9.77;;
37895;SDS011;23733;53.254;10.430;2022-12-22T15:25:20;16.27;;;9.43;;
37895;SDS011;23733;53.254;10.430;2022-12-22T15:27:47;20.97;;;9.90;;
37895;SDS011;23733;53.254;10.430;2022-12-22T15:30:15;15.77;;;10.30;;
37895;SDS011;23733;53.254;10.430;2022-12-22T15:32:42;16.80;;;9.93;;
37895;SDS011;23733;53.254;10.430;2022-12-22T15:35:20;20.37;;;10.90;;
37895;SDS011;23733;53.254;10.430;2022-12-22T15:37:51;15.83;;;9.20;;
37895;SDS011;23733;53.254;10.430;2022-12-22T15:40:21;16.83;;;9.87;;
37895;SDS011;23733;53.254;10.430;2022-12-22T15:42:48;16.47;;;9.83;;
37895;SDS011;23733;53.254;10.430;2022-12-22T15:45:15;20.07;;;10.60;;
37895;SDS011;23733;53.254;10.430;2022-12-22T15:47:43;21.17;;;11.73;;
37895;SDS011;23733;53.254;10.430;2022-12-22T15:50:20;23.07;;;9.93;;
37895;SDS011;23733;53.254;10.430;2022-12-22T15:52:49;19.23;;;10.30;;
37895;SDS011;23733;53.254;10.430;2022-12-22T15:55:16;18.73;;;9.70;;
37895;SDS011;23733;53.254;10.430;2022-12-22T15:57:43;18.30;;;9.53;;
37895;SDS011;23733;53.254;10.430;2022-12-22T16:00:10;18.73;;;9.70;;
37895;SDS011;23733;53.254;10.430;2022-12-22T16:02:40;16.87;;;9.87;;
37895;SDS011;23733;53.254;10.430;2022-12-22T16:05:15;14.17;;;8.10;;
37895;SDS011;23733;53.254;10.430;2022-12-22T16:07:42;16.77;;;9.57;;
37895;SDS011;23733;53.254;10.430;2022-12-22T16:10:22;20.50;;;9.57;;
37895;SDS011;23733;53.254;10.430;2022-12-22T16:12:49;20.73;;;10.73;;
37895;SDS011;23733;53.254;10.430;2022-12-22T16:15:20;20.13;;;10.60;;
37895;SDS011;23733;53.254;10.430;2022-12-22T16:17:47;17.03;;;9.97;;
37895;SDS011;23733;53.254;10.430;2022-12-22T16:20:15;17.47;;;9.47;;
37895;SDS011;23733;53.254;10.430;2022-12-22T16:22:42;14.20;;;8.73;;
37895;SDS011;23733;53.254;10.430;2022-12-22T16:25:13;18.67;;;9.60;;
37895;SDS011;23733;53.254;10.430;2022-12-22T16:27:39;16.77;;;8.93;;
37895;SDS011;23733;53.254;10.430;2022-12-22T16:30:14;17.47;;;8.53;;
37895;SDS011;23733;53.254;10.430;2022-12-22T16:32:41;22.60;;;9.67;;
37895;SDS011;23733;53.254;10.430;2022-12-22T16:37:34;15.63;;;9.00;;
37895;SDS011;23733;53.254;10.430;2022-12-22T16:40:01;20.07;;;9.77;;
37895;SDS011;23733;53.254;10.430;2022-12-22T16:42:27;18.33;;;9.43;;
37895;SDS011;23733;53.254;10.430;2022-12-22T16:44:54;15.83;;;7.70;;